sensor_id;sensor_type;location;lat;lon;timestamp;temperature;humidity
68867;SHT30;56451;44.804;20.476;2023-04-03T00:01:37;13.50;68.10
68867;SHT30;56451;44.804;20.476;2023-04-03T00:04:05;13.38;68.96
68867;SHT30;56451;44.804;20.476;2023-04-03T00:06:31;13.12;69.91
68867;SHT30;56451;44.804;20.476;2023-04-03T00:08:58;12.95;70.75
68867;SHT30;56451;44.804;20.476;2023-04-03T00:11:24;12.77;71.45
68867;SHT30;56451;44.804;20.476;2023-04-03T00:13:50;12.58;72.16
68867;SHT30;56451;44.804;20.476;2023-04-03T00:16:16;12.44;72.69
68867;SHT30;56451;44.804;20.476;2023-04-03T00:18:43;12.32;73.33
68867;SHT30;56451;44.804;20.476;2023-04-03T00:21:10;12.28;73.60
68867;SHT30;56451;44.804;20.476;2023-04-03T00:23:37;12.15;73.99
68867;SHT30;56451;44.804;20.476;2023-04-03T00:26:03;12.02;74.53
68867;SHT30;56451;44.804;20.476;2023-04-03T00:28:29;11.98;74.87
68867;SHT30;56451;44.804;20.476;2023-04-03T00:30:55;11.95;75.09
68867;SHT30;56451;44.804;20.476;2023-04-03T00:33:21;11.92;75.33
68867;SHT30;56451;44.804;20.476;2023-04-03T00:35:48;11.95;75.40
68867;SHT30;56451;44.804;20.476;2023-04-03T00:38:15;11.89;75.54
68867;SHT30;56451;44.804;20.476;2023-04-03T00:40:44;11.92;75.69
68867;SHT30;56451;44.804;20.476;2023-04-03T00:43:19;11.95;75.55
68867;SHT30;56451;44.804;20.476;2023-04-03T00:45:48;11.98;75.44
68867;SHT30;56451;44.804;20.476;2023-04-03T00:48:20;11.93;75.41
68867;SHT30;56451;44.804;20.476;2023-04-03T00:50:48;11.86;75.48
68867;SHT30;56451;44.804;20.476;2023-04-03T00:53:27;11.85;75.55
68867;SHT30;56451;44.804;20.476;2023-04-03T00:55:55;11.78;75.71
68867;SHT30;56451;44.804;20.476;2023-04-03T00:58:28;11.82;75.65
68867;SHT30;56451;44.804;20.476;2023-04-03T01:00:58;11.81;75.59
68867;SHT30;56451;44.804;20.476;2023-04-03T01:03:24;11.83;75.68
68867;SHT30;56451;44.804;20.476;2023-04-03T01:05:51;11.83;75.59
68867;SHT30;56451;44.804;20.476;2023-04-03T01:08:17;11.78;75.73
68867;SHT30;56451;44.804;20.476;2023-04-03T01:10:43;11.72;76.11
68867;SHT30;56451;44.804;20.476;2023-04-03T01:13:39;11.74;76.11
68867;SHT30;56451;44.804;20.476;2023-04-03T01:16:06;11.72;76.15
68867;SHT30;56451;44.804;20.476;2023-04-03T01:18:34;11.68;76.38
68867;SHT30;56451;44.804;20.476;2023-04-03T01:21:29;11.74;75.88
68867;SHT30;56451;44.804;20.476;2023-04-03T01:24:50;11.64;76.01
68867;SHT30;56451;44.804;20.476;2023-04-03T01:26:58;11.50;76.59
68867;SHT30;56451;44.804;20.476;2023-04-03T01:29:24;11.38;76.38
68867;SHT30;56451;44.804;20.476;2023-04-03T01:31:59;11.26;75.91
68867;SHT30;56451;44.804;20.476;2023-04-03T01:34:27;11.27;75.48
68867;SHT30;56451;44.804;20.476;2023-04-03T01:36:53;11.24;74.84
68867;SHT30;56451;44.804;20.476;2023-04-03T01:39:20;11.17;74.09
68867;SHT30;56451;44.804;20.476;2023-04-03T01:41:46;11.07;73.74
68867;SHT30;56451;44.804;20.476;2023-04-03T01:44:19;11.00;73.53
68867;SHT30;56451;44.804;20.476;2023-04-03T01:46:45;10.89;73.14
68867;SHT30;56451;44.804;20.476;2023-04-03T01:49:11;10.79;73.24
68867;SHT30;56451;44.804;20.476;2023-04-03T01:51:37;10.69;72.93
68867;SHT30;56451;44.804;20.476;2023-04-03T01:54:03;10.58;73.34
68867;SHT30;56451;44.804;20.476;2023-04-03T01:56:29;10.54;72.64
68867;SHT30;56451;44.804;20.476;2023-04-03T01:58:56;10.44;72.32
68867;SHT30;56451;44.804;20.476;2023-04-03T02:01:22;10.41;72.10
68867;SHT30;56451;44.804;20.476;2023-04-03T02:03:49;10.38;71.27
68867;SHT30;56451;44.804;20.476;2023-04-03T02:06:15;10.41;71.37
68867;SHT30;56451;44.804;20.476;2023-04-03T02:08:41;10.34;71.38
68867;SHT30;56451;44.804;20.476;2023-04-03T02:11:07;10.33;71.25
68867;SHT30;56451;44.804;20.476;2023-04-03T02:13:33;10.20;71.24
68867;SHT30;56451;44.804;20.476;2023-04-03T02:16:06;10.14;71.59
68867;SHT30;56451;44.804;20.476;2023-04-03T02:18:32;10.06;71.64
68867;SHT30;56451;44.804;20.476;2023-04-03T02:20:58;9.96;71.37
68867;SHT30;56451;44.804;20.476;2023-04-03T02:23:23;9.90;71.68
68867;SHT30;56451;44.804;20.476;2023-04-03T02:25:50;9.86;71.63
68867;SHT30;56451;44.804;20.476;2023-04-03T02:28:16;9.80;71.90
68867;SHT30;56451;44.804;20.476;2023-04-03T02:30:42;9.73;72.10
68867;SHT30;56451;44.804;20.476;2023-04-03T02:33:08;9.82;71.70
68867;SHT30;56451;44.804;20.476;2023-04-03T02:35:34;9.80;71.23
68867;SHT30;56451;44.804;20.476;2023-04-03T02:38:00;9.73;71.43
68867;SHT30;56451;44.804;20.476;2023-04-03T02:40:26;9.67;71.55
68867;SHT30;56451;44.804;20.476;2023-04-03T02:42:52;9.63;71.01
68867;SHT30;56451;44.804;20.476;2023-04-03T02:45:19;9.63;70.85
68867;SHT30;56451;44.804;20.476;2023-04-03T02:47:45;9.59;70.90
68867;SHT30;56451;44.804;20.476;2023-04-03T02:50:11;9.60;70.76
68867;SHT30;56451;44.804;20.476;2023-04-03T02:52:37;9.52;70.67
68867;SHT30;56451;44.804;20.476;2023-04-03T02:55:03;9.50;70.88
68867;SHT30;56451;44.804;20.476;2023-04-03T02:57:29;9.50;70.98
68867;SHT30;56451;44.804;20.476;2023-04-03T02:59:55;9.49;71.16
68867;SHT30;56451;44.804;20.476;2023-04-03T03:02:21;9.53;71.28
68867;SHT30;56451;44.804;20.476;2023-04-03T03:04:47;9.50;71.22
68867;SHT30;56451;44.804;20.476;2023-04-03T03:07:13;9.50;71.48
68867;SHT30;56451;44.804;20.476;2023-04-03T03:09:39;9.46;71.13
68867;SHT30;56451;44.804;20.476;2023-04-03T03:12:05;9.49;71.39
68867;SHT30;56451;44.804;20.476;2023-04-03T03:14:31;9.50;71.05
68867;SHT30;56451;44.804;20.476;2023-04-03T03:16:57;9.49;71.20
68867;SHT30;56451;44.804;20.476;2023-04-03T03:19:23;9.46;71.44
68867;SHT30;56451;44.804;20.476;2023-04-03T03:21:49;9.49;71.61
68867;SHT30;56451;44.804;20.476;2023-04-03T03:24:15;9.52;71.44
68867;SHT30;56451;44.804;20.476;2023-04-03T03:26:42;9.58;71.28
68867;SHT30;56451;44.804;20.476;2023-04-03T03:29:07;9.50;71.23
68867;SHT30;56451;44.804;20.476;2023-04-03T03:31:34;9.49;71.31
68867;SHT30;56451;44.804;20.476;2023-04-03T03:33:59;9.53;71.11
68867;SHT30;56451;44.804;20.476;2023-04-03T03:36:25;9.55;70.69
68867;SHT30;56451;44.804;20.476;2023-04-03T03:38:51;9.53;70.52
68867;SHT30;56451;44.804;20.476;2023-04-03T03:41:18;9.58;70.66
68867;SHT30;56451;44.804;20.476;2023-04-03T03:43:44;9.52;70.41
68867;SHT30;56451;44.804;20.476;2023-04-03T03:46:12;9.50;70.73
68867;SHT30;56451;44.804;20.476;2023-04-03T03:48:38;9.58;70.70
68867;SHT30;56451;44.804;20.476;2023-04-03T03:51:04;9.60;70.84
68867;SHT30;56451;44.804;20.476;2023-04-03T03:53:34;9.69;70.45
68867;SHT30;56451;44.804;20.476;2023-04-03T03:56:05;9.67;70.41
68867;SHT30;56451;44.804;20.476;2023-04-03T03:58:32;9.72;70.32
68867;SHT30;56451;44.804;20.476;2023-04-03T04:01:05;9.75;70.32
68867;SHT30;56451;44.804;20.476;2023-04-03T04:03:33;9.79;70.00
68867;SHT30;56451;44.804;20.476;2023-04-03T04:05:59;9.76;70.06
68867;SHT30;56451;44.804;20.476;2023-04-03T04:08:25;9.76;70.19
68867;SHT30;56451;44.804;20.476;2023-04-03T04:10:51;9.83;70.02
68867;SHT30;56451;44.804;20.476;2023-04-03T04:13:18;9.91;69.70
68867;SHT30;56451;44.804;20.476;2023-04-03T04:15:45;9.96;69.86
68867;SHT30;56451;44.804;20.476;2023-04-03T04:18:12;9.98;69.43
68867;SHT30;56451;44.804;20.476;2023-04-03T04:20:40;9.97;69.61
68867;SHT30;56451;44.804;20.476;2023-04-03T04:23:06;10.03;68.95
68867;SHT30;56451;44.804;20.476;2023-04-03T04:25:32;10.11;68.47
68867;SHT30;56451;44.804;20.476;2023-04-03T04:27:58;10.18;68.14
68867;SHT30;56451;44.804;20.476;2023-04-03T04:30:25;10.28;67.67
68867;SHT30;56451;44.804;20.476;2023-04-03T04:32:52;10.30;67.74
68867;SHT30;56451;44.804;20.476;2023-04-03T04:35:18;10.28;68.00
68867;SHT30;56451;44.804;20.476;2023-04-03T04:37:47;10.25;67.87
68867;SHT30;56451;44.804;20.476;2023-04-03T04:40:13;10.24;68.00
68867;SHT30;56451;44.804;20.476;2023-04-03T04:42:39;10.30;67.90
68867;SHT30;56451;44.804;20.476;2023-04-03T04:45:06;10.28;67.70
68867;SHT30;56451;44.804;20.476;2023-04-03T04:47:33;10.38;67.59
68867;SHT30;56451;44.804;20.476;2023-04-03T04:49:59;10.38;67.35
68867;SHT30;56451;44.804;20.476;2023-04-03T04:52:26;10.40;67.46
68867;SHT30;56451;44.804;20.476;2023-04-03T04:54:52;10.40;67.35
68867;SHT30;56451;44.804;20.476;2023-04-03T04:57:18;10.31;67.61
68867;SHT30;56451;44.804;20.476;2023-04-03T04:59:45;10.20;67.70
68867;SHT30;56451;44.804;20.476;2023-04-03T05:02:11;10.17;67.80
68867;SHT30;56451;44.804;20.476;2023-04-03T05:04:39;10.10;67.78
68867;SHT30;56451;44.804;20.476;2023-04-03T05:07:11;10.13;67.74
68867;SHT30;56451;44.804;20.476;2023-04-03T05:09:37;10.10;67.83
68867;SHT30;56451;44.804;20.476;2023-04-03T05:12:04;10.14;67.76
68867;SHT30;56451;44.804;20.476;2023-04-03T05:14:37;10.07;67.78
68867;SHT30;56451;44.804;20.476;2023-04-03T05:17:06;10.11;67.90
68867;SHT30;56451;44.804;20.476;2023-04-03T05:19:35;10.11;67.94
68867;SHT30;56451;44.804;20.476;2023-04-03T05:22:03;10.07;68.05
68867;SHT30;56451;44.804;20.476;2023-04-03T05:24:29;10.06;68.37
68867;SHT30;56451;44.804;20.476;2023-04-03T05:26:55;9.98;68.33
68867;SHT30;56451;44.804;20.476;2023-04-03T05:29:22;9.85;68.97
68867;SHT30;56451;44.804;20.476;2023-04-03T05:31:50;9.79;69.20
68867;SHT30;56451;44.804;20.476;2023-04-03T05:34:16;9.69;69.69
68867;SHT30;56451;44.804;20.476;2023-04-03T05:36:43;9.67;70.12
68867;SHT30;56451;44.804;20.476;2023-04-03T05:39:10;9.73;70.06
68867;SHT30;56451;44.804;20.476;2023-04-03T05:41:40;9.75;69.88
68867;SHT30;56451;44.804;20.476;2023-04-03T05:44:06;9.65;70.54
68867;SHT30;56451;44.804;20.476;2023-04-03T05:46:33;9.58;71.18
68867;SHT30;56451;44.804;20.476;2023-04-03T05:49:02;9.50;71.37
68867;SHT30;56451;44.804;20.476;2023-04-03T05:51:34;9.48;71.91
68867;SHT30;56451;44.804;20.476;2023-04-03T05:54:13;9.29;72.59
68867;SHT30;56451;44.804;20.476;2023-04-03T05:56:42;9.29;72.79
68867;SHT30;56451;44.804;20.476;2023-04-03T05:59:08;9.27;72.80
68867;SHT30;56451;44.804;20.476;2023-04-03T06:01:34;9.28;73.06
68867;SHT30;56451;44.804;20.476;2023-04-03T06:04:01;9.28;73.43
68867;SHT30;56451;44.804;20.476;2023-04-03T06:06:43;9.39;73.48
68867;SHT30;56451;44.804;20.476;2023-04-03T06:09:10;9.42;73.76
68867;SHT30;56451;44.804;20.476;2023-04-03T06:11:36;9.43;73.65
68867;SHT30;56451;44.804;20.476;2023-04-03T06:14:02;9.40;73.89
68867;SHT30;56451;44.804;20.476;2023-04-03T06:16:28;9.40;74.25
68867;SHT30;56451;44.804;20.476;2023-04-03T06:18:54;9.42;74.62
68867;SHT30;56451;44.804;20.476;2023-04-03T06:21:22;9.39;75.18
68867;SHT30;56451;44.804;20.476;2023-04-03T06:23:48;9.49;75.62
68867;SHT30;56451;44.804;20.476;2023-04-03T06:26:14;9.58;74.92
68867;SHT30;56451;44.804;20.476;2023-04-03T06:28:40;9.60;74.62
68867;SHT30;56451;44.804;20.476;2023-04-03T06:31:06;9.53;74.12
68867;SHT30;56451;44.804;20.476;2023-04-03T06:33:32;9.42;74.75
68867;SHT30;56451;44.804;20.476;2023-04-03T06:35:58;9.36;74.71
68867;SHT30;56451;44.804;20.476;2023-04-03T06:38:24;9.39;74.73
68867;SHT30;56451;44.804;20.476;2023-04-03T06:40:51;9.36;73.95
68867;SHT30;56451;44.804;20.476;2023-04-03T06:43:17;9.35;74.20
68867;SHT30;56451;44.804;20.476;2023-04-03T06:45:43;9.40;73.16
68867;SHT30;56451;44.804;20.476;2023-04-03T06:48:09;9.35;72.85
68867;SHT30;56451;44.804;20.476;2023-04-03T06:50:35;9.29;73.05
68867;SHT30;56451;44.804;20.476;2023-04-03T06:53:01;9.28;72.88
68867;SHT30;56451;44.804;20.476;2023-04-03T06:55:27;9.21;71.66
68867;SHT30;56451;44.804;20.476;2023-04-03T06:57:53;9.05;71.84
68867;SHT30;56451;44.804;20.476;2023-04-03T07:00:19;9.03;71.42
68867;SHT30;56451;44.804;20.476;2023-04-03T07:02:45;8.90;72.07
68867;SHT30;56451;44.804;20.476;2023-04-03T07:05:12;8.88;72.57
68867;SHT30;56451;44.804;20.476;2023-04-03T07:07:39;8.83;72.25
68867;SHT30;56451;44.804;20.476;2023-04-03T07:10:06;8.84;72.34
68867;SHT30;56451;44.804;20.476;2023-04-03T07:12:32;8.79;72.63
68867;SHT30;56451;44.804;20.476;2023-04-03T07:14:58;8.85;72.62
68867;SHT30;56451;44.804;20.476;2023-04-03T07:17:24;8.91;72.37
68867;SHT30;56451;44.804;20.476;2023-04-03T07:19:51;8.97;72.21
68867;SHT30;56451;44.804;20.476;2023-04-03T07:22:17;9.00;71.92
68867;SHT30;56451;44.804;20.476;2023-04-03T07:24:43;9.00;71.50
68867;SHT30;56451;44.804;20.476;2023-04-03T07:27:09;9.01;71.51
68867;SHT30;56451;44.804;20.476;2023-04-03T07:29:36;9.00;70.39
68867;SHT30;56451;44.804;20.476;2023-04-03T07:32:02;9.04;69.93
68867;SHT30;56451;44.804;20.476;2023-04-03T07:34:28;9.05;69.97
68867;SHT30;56451;44.804;20.476;2023-04-03T07:36:55;9.03;68.81
68867;SHT30;56451;44.804;20.476;2023-04-03T07:39:20;8.96;69.08
68867;SHT30;56451;44.804;20.476;2023-04-03T07:41:46;8.91;68.85
68867;SHT30;56451;44.804;20.476;2023-04-03T07:44:12;8.83;69.06
68867;SHT30;56451;44.804;20.476;2023-04-03T07:46:38;8.81;69.71
68867;SHT30;56451;44.804;20.476;2023-04-03T07:49:06;8.77;69.82
68867;SHT30;56451;44.804;20.476;2023-04-03T07:51:32;8.71;70.27
68867;SHT30;56451;44.804;20.476;2023-04-03T07:53:58;8.73;69.49
68867;SHT30;56451;44.804;20.476;2023-04-03T07:56:24;8.70;68.94
68867;SHT30;56451;44.804;20.476;2023-04-03T07:58:51;8.70;69.87
68867;SHT30;56451;44.804;20.476;2023-04-03T08:01:17;8.69;69.56
68867;SHT30;56451;44.804;20.476;2023-04-03T08:03:42;8.69;69.01
68867;SHT30;56451;44.804;20.476;2023-04-03T08:06:10;8.69;68.70
68867;SHT30;56451;44.804;20.476;2023-04-03T08:08:36;8.66;68.37
68867;SHT30;56451;44.804;20.476;2023-04-03T08:11:02;8.63;67.29
68867;SHT30;56451;44.804;20.476;2023-04-03T08:13:31;8.57;67.08
68867;SHT30;56451;44.804;20.476;2023-04-03T08:15:57;8.54;67.13
68867;SHT30;56451;44.804;20.476;2023-04-03T08:18:24;8.50;67.56
68867;SHT30;56451;44.804;20.476;2023-04-03T08:20:51;8.49;66.60
68867;SHT30;56451;44.804;20.476;2023-04-03T08:23:18;8.48;66.41
68867;SHT30;56451;44.804;20.476;2023-04-03T08:25:44;8.50;66.66
68867;SHT30;56451;44.804;20.476;2023-04-03T08:28:12;8.54;66.68
68867;SHT30;56451;44.804;20.476;2023-04-03T08:30:41;8.53;66.25
68867;SHT30;56451;44.804;20.476;2023-04-03T08:33:08;8.50;66.29
68867;SHT30;56451;44.804;20.476;2023-04-03T08:35:41;8.52;66.68
68867;SHT30;56451;44.804;20.476;2023-04-03T08:38:08;8.57;66.24
68867;SHT30;56451;44.804;20.476;2023-04-03T08:40:34;8.60;65.80
68867;SHT30;56451;44.804;20.476;2023-04-03T08:43:10;8.69;65.78
68867;SHT30;56451;44.804;20.476;2023-04-03T08:45:46;8.70;65.47
68867;SHT30;56451;44.804;20.476;2023-04-03T08:48:20;8.70;65.48
68867;SHT30;56451;44.804;20.476;2023-04-03T08:50:50;8.71;65.63
68867;SHT30;56451;44.804;20.476;2023-04-03T08:53:20;8.74;65.76
68867;SHT30;56451;44.804;20.476;2023-04-03T08:55:51;8.76;66.61
68867;SHT30;56451;44.804;20.476;2023-04-03T08:58:21;8.83;67.05
68867;SHT30;56451;44.804;20.476;2023-04-03T09:00:49;8.91;66.13
68867;SHT30;56451;44.804;20.476;2023-04-03T09:03:18;8.91;66.07
68867;SHT30;56451;44.804;20.476;2023-04-03T09:05:59;8.83;66.55
68867;SHT30;56451;44.804;20.476;2023-04-03T09:08:28;8.76;67.04
68867;SHT30;56451;44.804;20.476;2023-04-03T09:16:57;8.88;66.65
68867;SHT30;56451;44.804;20.476;2023-04-03T09:22:20;8.84;65.87
68867;SHT30;56451;44.804;20.476;2023-04-03T09:24:47;8.85;66.21
68867;SHT30;56451;44.804;20.476;2023-04-03T09:27:14;8.90;65.58
68867;SHT30;56451;44.804;20.476;2023-04-03T09:29:44;8.92;65.52
68867;SHT30;56451;44.804;20.476;2023-04-03T09:32:22;8.91;65.47
68867;SHT30;56451;44.804;20.476;2023-04-03T09:34:51;8.94;65.48
68867;SHT30;56451;44.804;20.476;2023-04-03T09:37:43;8.96;65.57
68867;SHT30;56451;44.804;20.476;2023-04-03T09:40:29;9.04;65.23
68867;SHT30;56451;44.804;20.476;2023-04-03T09:42:58;9.05;65.31
68867;SHT30;56451;44.804;20.476;2023-04-03T09:45:32;9.07;65.52
68867;SHT30;56451;44.804;20.476;2023-04-03T09:48:08;9.18;65.21
68867;SHT30;56451;44.804;20.476;2023-04-03T09:50:36;9.21;64.93
68867;SHT30;56451;44.804;20.476;2023-04-03T09:53:07;9.28;65.20
68867;SHT30;56451;44.804;20.476;2023-04-03T09:55:50;9.38;65.03
68867;SHT30;56451;44.804;20.476;2023-04-03T09:58:31;9.50;65.18
68867;SHT30;56451;44.804;20.476;2023-04-03T10:01:02;9.65;64.81
68867;SHT30;56451;44.804;20.476;2023-04-03T10:03:34;9.80;64.83
68867;SHT30;56451;44.804;20.476;2023-04-03T10:06:02;9.87;64.61
68867;SHT30;56451;44.804;20.476;2023-04-03T10:08:33;9.91;64.81
68867;SHT30;56451;44.804;20.476;2023-04-03T10:11:12;10.00;64.61
68867;SHT30;56451;44.804;20.476;2023-04-03T10:13:54;10.08;64.29
68867;SHT30;56451;44.804;20.476;2023-04-03T10:16:26;10.20;63.90
68867;SHT30;56451;44.804;20.476;2023-04-03T10:21:47;10.20;63.21
68867;SHT30;56451;44.804;20.476;2023-04-03T10:24:21;10.14;63.14
68867;SHT30;56451;44.804;20.476;2023-04-03T10:26:58;10.08;63.52
68867;SHT30;56451;44.804;20.476;2023-04-03T10:33:02;10.07;63.09
68867;SHT30;56451;44.804;20.476;2023-04-03T10:46:40;10.11;63.60
68867;SHT30;56451;44.804;20.476;2023-04-03T10:49:49;10.21;63.69
68867;SHT30;56451;44.804;20.476;2023-04-03T10:57:33;10.42;63.63
68867;SHT30;56451;44.804;20.476;2023-04-03T11:00:03;10.56;63.08
68867;SHT30;56451;44.804;20.476;2023-04-03T11:02:37;10.61;63.09
68867;SHT30;56451;44.804;20.476;2023-04-03T11:08:03;10.77;62.59
68867;SHT30;56451;44.804;20.476;2023-04-03T11:10:38;10.85;61.96
68867;SHT30;56451;44.804;20.476;2023-04-03T11:15:57;10.80;60.58
68867;SHT30;56451;44.804;20.476;2023-04-03T11:18:47;10.71;61.53
68867;SHT30;56451;44.804;20.476;2023-04-03T11:24:05;10.83;61.23
68867;SHT30;56451;44.804;20.476;2023-04-03T11:26:37;10.92;60.83
68867;SHT30;56451;44.804;20.476;2023-04-03T11:29:08;11.00;59.67
68867;SHT30;56451;44.804;20.476;2023-04-03T11:36:45;11.03;60.16
68867;SHT30;56451;44.804;20.476;2023-04-03T11:39:34;11.06;60.15
68867;SHT30;56451;44.804;20.476;2023-04-03T11:44:41;11.03;60.35
68867;SHT30;56451;44.804;20.476;2023-04-03T11:47:09;11.07;60.23
68867;SHT30;56451;44.804;20.476;2023-04-03T12:00:58;11.19;60.54
68867;SHT30;56451;44.804;20.476;2023-04-03T12:16:27;11.23;61.11
68867;SHT30;56451;44.804;20.476;2023-04-03T12:29:38;11.51;60.91
68867;SHT30;56451;44.804;20.476;2023-04-03T12:34:57;11.67;60.58
68867;SHT30;56451;44.804;20.476;2023-04-03T12:38:10;11.77;60.43
68867;SHT30;56451;44.804;20.476;2023-04-03T12:46:23;11.88;59.64
68867;SHT30;56451;44.804;20.476;2023-04-03T12:48:53;11.93;59.63
68867;SHT30;56451;44.804;20.476;2023-04-03T12:51:36;11.91;59.49
68867;SHT30;56451;44.804;20.476;2023-04-03T12:54:16;11.95;58.83
68867;SHT30;56451;44.804;20.476;2023-04-03T12:56:44;11.98;59.09
68867;SHT30;56451;44.804;20.476;2023-04-03T12:59:18;12.02;58.67
68867;SHT30;56451;44.804;20.476;2023-04-03T13:01:53;12.00;58.02
68867;SHT30;56451;44.804;20.476;2023-04-03T13:04:19;11.96;56.26
68867;SHT30;56451;44.804;20.476;2023-04-03T13:06:45;11.89;56.45
68867;SHT30;56451;44.804;20.476;2023-04-03T13:09:38;11.78;56.84
68867;SHT30;56451;44.804;20.476;2023-04-03T13:12:13;11.79;56.87
68867;SHT30;56451;44.804;20.476;2023-04-03T13:14:39;11.82;56.50
68867;SHT30;56451;44.804;20.476;2023-04-03T13:17:14;11.83;56.33
68867;SHT30;56451;44.804;20.476;2023-04-03T13:19:42;11.82;56.80
68867;SHT30;56451;44.804;20.476;2023-04-03T13:24:51;11.83;56.74
68867;SHT30;56451;44.804;20.476;2023-04-03T13:27:18;11.85;56.18
68867;SHT30;56451;44.804;20.476;2023-04-03T13:29:50;11.85;55.90
68867;SHT30;56451;44.804;20.476;2023-04-03T13:32:27;11.79;56.88
68867;SHT30;56451;44.804;20.476;2023-04-03T13:34:54;11.81;57.24
68867;SHT30;56451;44.804;20.476;2023-04-03T13:37:28;11.82;57.99
68867;SHT30;56451;44.804;20.476;2023-04-03T13:42:30;11.86;58.69
68867;SHT30;56451;44.804;20.476;2023-04-03T13:45:21;11.88;58.80
68867;SHT30;56451;44.804;20.476;2023-04-03T13:47:52;11.91;59.08
68867;SHT30;56451;44.804;20.476;2023-04-03T13:50:22;11.92;59.40
68867;SHT30;56451;44.804;20.476;2023-04-03T13:52:52;11.96;59.71
68867;SHT30;56451;44.804;20.476;2023-04-03T13:55:26;11.99;59.89
68867;SHT30;56451;44.804;20.476;2023-04-03T13:58:00;11.96;60.10
68867;SHT30;56451;44.804;20.476;2023-04-03T14:00:45;12.02;60.44
68867;SHT30;56451;44.804;20.476;2023-04-03T14:03:19;12.02;60.83
68867;SHT30;56451;44.804;20.476;2023-04-03T14:05:46;11.96;61.24
68867;SHT30;56451;44.804;20.476;2023-04-03T14:08:12;12.03;60.83
68867;SHT30;56451;44.804;20.476;2023-04-03T14:10:38;12.05;59.24
68867;SHT30;56451;44.804;20.476;2023-04-03T14:13:05;11.98;57.50
68867;SHT30;56451;44.804;20.476;2023-04-03T14:15:32;11.92;57.21
68867;SHT30;56451;44.804;20.476;2023-04-03T14:17:58;11.89;57.39
68867;SHT30;56451;44.804;20.476;2023-04-03T14:20:26;11.91;57.42
68867;SHT30;56451;44.804;20.476;2023-04-03T14:22:53;11.91;57.58
68867;SHT30;56451;44.804;20.476;2023-04-03T14:25:21;11.86;58.17
68867;SHT30;56451;44.804;20.476;2023-04-03T14:27:50;11.81;58.88
68867;SHT30;56451;44.804;20.476;2023-04-03T14:30:29;11.78;59.16
68867;SHT30;56451;44.804;20.476;2023-04-03T14:32:57;11.78;59.29
68867;SHT30;56451;44.804;20.476;2023-04-03T14:35:24;11.83;59.03
68867;SHT30;56451;44.804;20.476;2023-04-03T14:37:51;11.86;58.85
68867;SHT30;56451;44.804;20.476;2023-04-03T14:40:22;11.93;58.74
68867;SHT30;56451;44.804;20.476;2023-04-03T14:42:49;11.95;58.16
68867;SHT30;56451;44.804;20.476;2023-04-03T14:45:16;11.86;57.71
68867;SHT30;56451;44.804;20.476;2023-04-03T14:47:48;11.83;57.56
68867;SHT30;56451;44.804;20.476;2023-04-03T14:50:19;11.77;57.82
68867;SHT30;56451;44.804;20.476;2023-04-03T14:52:47;11.78;58.01
68867;SHT30;56451;44.804;20.476;2023-04-03T14:55:18;11.75;57.54
68867;SHT30;56451;44.804;20.476;2023-04-03T14:57:45;11.72;56.99
68867;SHT30;56451;44.804;20.476;2023-04-03T15:00:19;11.74;57.37
68867;SHT30;56451;44.804;20.476;2023-04-03T15:02:45;11.70;57.56
68867;SHT30;56451;44.804;20.476;2023-04-03T15:05:13;11.74;57.32
68867;SHT30;56451;44.804;20.476;2023-04-03T15:07:43;11.72;57.11
68867;SHT30;56451;44.804;20.476;2023-04-03T15:10:18;11.74;56.85
68867;SHT30;56451;44.804;20.476;2023-04-03T15:12:44;11.70;55.98
68867;SHT30;56451;44.804;20.476;2023-04-03T15:15:10;11.64;56.25
68867;SHT30;56451;44.804;20.476;2023-04-03T15:17:37;11.64;56.12
68867;SHT30;56451;44.804;20.476;2023-04-03T15:20:05;11.64;55.86
68867;SHT30;56451;44.804;20.476;2023-04-03T15:22:36;11.58;56.41
68867;SHT30;56451;44.804;20.476;2023-04-03T15:25:02;11.58;56.51
68867;SHT30;56451;44.804;20.476;2023-04-03T15:27:28;11.54;56.28
68867;SHT30;56451;44.804;20.476;2023-04-03T15:29:54;11.57;56.06
68867;SHT30;56451;44.804;20.476;2023-04-03T15:32:20;11.57;56.00
68867;SHT30;56451;44.804;20.476;2023-04-03T15:34:46;11.50;56.25
68867;SHT30;56451;44.804;20.476;2023-04-03T15:37:12;11.44;56.24
68867;SHT30;56451;44.804;20.476;2023-04-03T15:39:38;11.37;56.57
68867;SHT30;56451;44.804;20.476;2023-04-03T15:42:04;11.34;56.23
68867;SHT30;56451;44.804;20.476;2023-04-03T15:44:33;11.35;56.06
68867;SHT30;56451;44.804;20.476;2023-04-03T15:47:00;11.28;56.00
68867;SHT30;56451;44.804;20.476;2023-04-03T15:49:27;11.22;56.26
68867;SHT30;56451;44.804;20.476;2023-04-03T15:51:53;11.26;56.31
68867;SHT30;56451;44.804;20.476;2023-04-03T15:54:19;11.23;55.88
68867;SHT30;56451;44.804;20.476;2023-04-03T15:56:46;11.22;56.21
68867;SHT30;56451;44.804;20.476;2023-04-03T15:59:12;11.19;56.25
68867;SHT30;56451;44.804;20.476;2023-04-03T16:01:38;11.17;56.48
68867;SHT30;56451;44.804;20.476;2023-04-03T16:04:05;11.20;55.69
68867;SHT30;56451;44.804;20.476;2023-04-03T16:06:31;11.14;55.62
68867;SHT30;56451;44.804;20.476;2023-04-03T16:08:59;11.13;55.59
68867;SHT30;56451;44.804;20.476;2023-04-03T16:11:25;11.09;55.71
68867;SHT30;56451;44.804;20.476;2023-04-03T16:13:51;11.06;56.09
68867;SHT30;56451;44.804;20.476;2023-04-03T16:16:17;11.06;55.94
68867;SHT30;56451;44.804;20.476;2023-04-03T16:18:44;11.04;55.84
68867;SHT30;56451;44.804;20.476;2023-04-03T16:21:13;11.06;55.29
68867;SHT30;56451;44.804;20.476;2023-04-03T16:23:40;11.07;55.34
68867;SHT30;56451;44.804;20.476;2023-04-03T16:26:07;11.07;55.31
68867;SHT30;56451;44.804;20.476;2023-04-03T16:28:33;11.03;55.45
68867;SHT30;56451;44.804;20.476;2023-04-03T16:30:59;11.02;55.27
68867;SHT30;56451;44.804;20.476;2023-04-03T16:33:27;11.06;55.27
68867;SHT30;56451;44.804;20.476;2023-04-03T16:35:53;11.02;55.29
68867;SHT30;56451;44.804;20.476;2023-04-03T16:38:19;11.03;55.35
68867;SHT30;56451;44.804;20.476;2023-04-03T16:40:45;11.00;54.76
68867;SHT30;56451;44.804;20.476;2023-04-03T16:43:11;10.99;54.93
68867;SHT30;56451;44.804;20.476;2023-04-03T16:45:37;10.93;54.94
68867;SHT30;56451;44.804;20.476;2023-04-03T16:48:03;10.83;55.07
68867;SHT30;56451;44.804;20.476;2023-04-03T16:50:29;10.82;55.36
68867;SHT30;56451;44.804;20.476;2023-04-03T16:52:55;10.79;55.27
68867;SHT30;56451;44.804;20.476;2023-04-03T16:55:21;10.75;54.84
68867;SHT30;56451;44.804;20.476;2023-04-03T16:57:47;10.66;55.23
68867;SHT30;56451;44.804;20.476;2023-04-03T17:00:14;10.64;55.36
68867;SHT30;56451;44.804;20.476;2023-04-03T17:02:41;10.61;55.19
68867;SHT30;56451;44.804;20.476;2023-04-03T17:05:07;10.61;54.76
68867;SHT30;56451;44.804;20.476;2023-04-03T17:07:33;10.56;55.00
68867;SHT30;56451;44.804;20.476;2023-04-03T17:09:59;10.52;54.66